createdAt,value
2019-02-26T00:00:51.874Z,44.66
2019-02-26T00:03:22.068Z,44.66
2019-02-26T00:05:51.786Z,44.77
2019-02-26T00:08:21.431Z,44.61
2019-02-26T00:10:50.271Z,44.66
2019-02-26T00:13:18.601Z,44.75
2019-02-26T00:15:48.375Z,44.69
2019-02-26T00:18:18.798Z,44.75
2019-02-26T00:20:46.328Z,44.80
2019-02-26T00:23:14.690Z,44.70
2019-02-26T00:25:42.861Z,44.82
2019-02-26T00:28:11.558Z,44.82
2019-02-26T00:30:42.477Z,44.64
2019-02-26T00:33:10.790Z,44.69
2019-02-26T00:35:39.888Z,44.74
2019-02-26T00:38:09.381Z,44.73
2019-02-26T00:40:39.286Z,44.71
2019-02-26T00:43:11.305Z,44.67
2019-02-26T00:45:39.297Z,44.69
2019-02-26T00:48:07.353Z,44.72
2019-02-26T00:50:37.317Z,44.70
2019-02-26T00:53:05.332Z,44.73
2019-02-26T00:55:34.828Z,44.70
2019-02-26T00:58:03.381Z,44.63
2019-02-26T01:00:33.190Z,44.66
2019-02-26T01:03:04.011Z,44.62
2019-02-26T01:05:33.670Z,44.63
2019-02-26T01:08:02.016Z,44.65
2019-02-26T01:10:30.047Z,44.59
2019-02-26T01:12:58.665Z,44.61
2019-02-26T01:15:27.817Z,44.56
2019-02-26T01:17:57.135Z,44.54
2019-02-26T01:20:27.521Z,44.55
2019-02-26T01:22:55.389Z,44.53
2019-02-26T01:25:23.481Z,44.52
2019-02-26T01:27:53.185Z,44.48
2019-02-26T01:30:25.837Z,44.52
2019-02-26T01:32:51.124Z,44.53
2019-02-26T01:35:19.253Z,44.52
2019-02-26T01:37:49.188Z,44.51
2019-02-26T01:40:21.074Z,44.50
2019-02-26T01:42:50.107Z,44.51
2019-02-26T01:45:35.673Z,44.45
2019-02-26T01:48:05.866Z,44.47
2019-02-26T01:50:35.525Z,44.39
2019-02-26T01:53:03.402Z,44.37
2019-02-26T01:55:31.601Z,44.36
2019-02-26T01:57:59.694Z,44.34
2019-02-26T02:00:27.726Z,44.37
2019-02-26T02:02:55.717Z,44.43
2019-02-26T02:05:24.264Z,44.39
2019-02-26T02:07:54.091Z,44.38
2019-02-26T02:10:23.243Z,44.37
2019-02-26T02:12:55.270Z,44.35
2019-02-26T02:15:23.760Z,44.35
2019-02-26T02:17:51.832Z,44.28
2019-02-26T02:20:21.563Z,44.21
2019-02-26T02:22:49.425Z,44.28
2019-02-26T02:25:17.465Z,44.26
2019-02-26T02:27:47.540Z,44.22
2019-02-26T02:30:22.542Z,44.24
2019-02-26T02:32:48.154Z,44.30
2019-02-26T02:35:18.501Z,44.25
2019-02-26T02:37:44.927Z,44.30
2019-02-26T02:40:12.955Z,44.30
2019-02-26T02:42:43.270Z,44.23
2019-02-26T02:45:13.498Z,44.19
2019-02-26T02:47:40.682Z,44.16
2019-02-26T02:50:12.068Z,44.16
2019-02-26T02:52:39.398Z,44.16
2019-02-26T02:55:09.870Z,44.21
2019-02-26T02:57:37.624Z,44.19
2019-02-26T03:00:08.541Z,44.19
2019-02-26T03:02:40.590Z,44.18
2019-02-26T03:05:06.564Z,44.19
2019-02-26T03:07:34.658Z,44.16
2019-02-26T03:10:06.786Z,44.14
2019-02-26T03:12:34.787Z,44.19
2019-02-26T03:15:04.839Z,44.20
2019-02-26T03:17:32.789Z,44.17
2019-02-26T03:20:02.731Z,44.18
2019-02-26T03:22:30.787Z,44.19
2019-02-26T03:24:59.674Z,44.16
2019-02-26T03:27:31.182Z,44.11
2019-02-26T03:30:01.746Z,44.04
2019-02-26T03:32:28.294Z,44.07
2019-02-26T03:34:56.269Z,44.06
2019-02-26T03:37:25.805Z,43.98
2019-02-26T03:39:55.203Z,43.98
2019-02-26T03:42:23.666Z,44.07
2019-02-26T03:44:51.913Z,44.07
2019-02-26T03:47:19.909Z,44.07
2019-02-26T03:49:47.951Z,44.00
2019-02-26T03:52:15.992Z,44.00
2019-02-26T03:54:45.958Z,43.97
2019-02-26T03:57:14.306Z,44.01
2019-02-26T03:59:43.793Z,44.06
2019-02-26T04:02:14.460Z,44.04
2019-02-26T04:04:41.603Z,44.00
2019-02-26T04:07:10.609Z,44.00
2019-02-26T04:09:41.916Z,43.98
2019-02-26T04:12:11.225Z,43.96
2019-02-26T04:14:38.694Z,43.95
2019-02-26T04:17:08.878Z,43.95
2019-02-26T04:19:36.649Z,43.95
2019-02-26T04:22:23.440Z,43.94
2019-02-26T04:24:53.049Z,43.97
2019-02-26T04:27:41.373Z,44.00
2019-02-26T04:30:19.033Z,43.98
2019-02-26T04:32:52.970Z,43.90
2019-02-26T04:35:27.559Z,43.97
2019-02-26T04:38:13.258Z,43.94
2019-02-26T04:40:48.499Z,43.95
2019-02-26T04:43:36.294Z,43.98
2019-02-26T04:46:28.820Z,43.80
2019-02-26T04:48:56.595Z,43.88
2019-02-26T04:51:24.719Z,43.93
2019-02-26T04:53:54.179Z,43.92
2019-02-26T04:56:22.310Z,43.90
2019-02-26T04:58:50.437Z,43.86
2019-02-26T05:01:19.213Z,43.84
2019-02-26T05:03:47.420Z,43.90
2019-02-26T05:06:15.550Z,43.92
2019-02-26T05:08:43.501Z,43.83
2019-02-26T05:11:14.880Z,43.89
2019-02-26T05:13:41.385Z,43.79
2019-02-26T05:16:09.478Z,43.77
2019-02-26T05:18:37.427Z,43.79
2019-02-26T05:21:08.276Z,43.63
2019-02-26T05:23:35.330Z,43.72
2019-02-26T05:26:05.619Z,43.68
2019-02-26T05:28:37.698Z,43.67
2019-02-26T05:31:04.479Z,43.66
2019-02-26T05:33:33.061Z,43.60
2019-02-26T05:36:03.380Z,43.56
2019-02-26T05:38:32.963Z,43.53
2019-02-26T05:41:00.683Z,43.54
2019-02-26T05:43:30.658Z,43.45
2019-02-26T05:46:00.700Z,43.44
2019-02-26T05:48:28.197Z,43.40
2019-02-26T05:50:57.528Z,43.38
2019-02-26T05:53:26.337Z,43.43
2019-02-26T05:55:56.045Z,43.34
2019-02-26T05:58:24.017Z,43.32
2019-02-26T06:00:52.160Z,43.38
2019-02-26T06:03:20.383Z,43.32
2019-02-26T06:05:51.664Z,43.55
2019-02-26T06:08:18.553Z,43.74
2019-02-26T06:10:46.713Z,43.74
2019-02-26T06:13:15.696Z,43.72
2019-02-26T06:15:43.866Z,43.48
2019-02-26T06:18:11.829Z,43.47
2019-02-26T06:20:39.906Z,43.31
2019-02-26T06:23:07.932Z,43.30
2019-02-26T06:25:36.169Z,43.29
2019-02-26T06:28:06.855Z,43.20
2019-02-26T06:30:34.135Z,43.17
2019-02-26T06:33:04.368Z,43.08
2019-02-26T06:35:33.593Z,43.03
2019-02-26T06:38:04.128Z,42.94
2019-02-26T06:40:34.489Z,42.95
2019-02-26T06:43:03.015Z,42.97
2019-02-26T06:45:31.160Z,42.91
2019-02-26T06:47:59.305Z,42.80
2019-02-26T06:50:27.406Z,42.97
2019-02-26T06:52:55.483Z,42.95
2019-02-26T06:55:23.514Z,42.64
2019-02-26T06:57:52.860Z,42.53
2019-02-26T07:00:24.261Z,42.52
2019-02-26T07:02:51.030Z,42.42
2019-02-26T07:05:19.050Z,42.19
2019-02-26T07:07:47.102Z,42.48
2019-02-26T07:10:18.452Z,42.14
2019-02-26T07:12:46.252Z,42.12
2019-02-26T07:15:15.051Z,42.10
2019-02-26T07:17:46.050Z,42.20
2019-02-26T07:20:13.058Z,42.15
2019-02-26T07:22:41.566Z,42.06
2019-02-26T07:25:13.189Z,41.88
2019-02-26T07:27:40.615Z,41.54
2019-02-26T07:30:08.838Z,41.51
2019-02-26T07:32:38.385Z,41.55
2019-02-26T07:35:08.729Z,41.58
2019-02-26T07:37:38.563Z,41.55
2019-02-26T07:40:08.770Z,41.60
2019-02-26T07:42:39.127Z,41.43
2019-02-26T07:45:14.641Z,41.20
2019-02-26T07:47:37.031Z,41.01
2019-02-26T07:50:06.705Z,41.04
2019-02-26T07:52:34.651Z,41.05
2019-02-26T07:55:03.705Z,41.00
2019-02-26T07:57:32.604Z,41.00
2019-02-26T08:00:01.202Z,41.00
2019-02-26T08:02:30.663Z,40.96
2019-02-26T08:04:59.989Z,40.96
2019-02-26T08:07:28.547Z,40.95
2019-02-26T08:09:58.018Z,40.92
2019-02-26T08:12:26.393Z,40.90
2019-02-26T08:14:54.357Z,40.84
2019-02-26T08:17:22.346Z,40.75
2019-02-26T08:19:50.327Z,40.60
2019-02-26T08:22:18.368Z,40.73
2019-02-26T08:24:48.631Z,40.78
2019-02-26T08:27:16.185Z,40.80
2019-02-26T08:29:44.390Z,40.75
2019-02-26T08:32:15.939Z,40.77
2019-02-26T08:34:42.202Z,40.76
2019-02-26T08:37:10.276Z,40.75
2019-02-26T08:39:38.773Z,40.60
2019-02-26T08:42:08.040Z,40.44
2019-02-26T08:44:36.256Z,40.27
2019-02-26T08:47:08.789Z,40.12
2019-02-26T08:49:35.341Z,40.09
2019-02-26T08:52:04.453Z,40.00
2019-02-26T08:54:33.313Z,39.87
2019-02-26T08:57:02.530Z,39.90
2019-02-26T08:59:30.586Z,40.02
2019-02-26T09:01:58.586Z,40.07
2019-02-26T09:04:26.634Z,40.43
2019-02-26T09:06:57.039Z,39.10
2019-02-26T09:09:25.948Z,38.85
2019-02-26T09:11:55.935Z,39.73
2019-02-26T09:14:24.658Z,40.53
2019-02-26T09:16:54.956Z,40.36
2019-02-26T09:19:22.665Z,40.59
2019-02-26T09:21:52.908Z,40.40
2019-02-26T09:24:21.822Z,40.08
2019-02-26T09:26:52.035Z,40.17
2019-02-26T09:29:19.641Z,40.00
2019-02-26T09:31:49.410Z,40.08
2019-02-26T09:34:17.655Z,40.12
2019-02-26T09:36:45.817Z,39.94
2019-02-26T09:39:15.544Z,39.98
2019-02-26T09:41:45.552Z,40.02
2019-02-26T09:44:13.389Z,40.24
2019-02-26T09:46:43.831Z,40.17
2019-02-26T09:49:12.623Z,40.09
2019-02-26T09:51:40.770Z,40.03
2019-02-26T09:54:10.960Z,40.13
2019-02-26T09:56:38.513Z,40.24
2019-02-26T09:59:07.137Z,40.37
2019-02-26T10:01:37.822Z,40.35
2019-02-26T10:04:06.311Z,40.48
2019-02-26T10:06:35.607Z,40.40
2019-02-26T10:09:05.152Z,40.19
2019-02-26T10:11:33.322Z,40.25
2019-02-26T10:14:02.888Z,40.42
2019-02-26T10:16:32.995Z,40.10
2019-02-26T10:19:00.708Z,40.00
2019-02-26T10:21:28.713Z,40.28
2019-02-26T10:23:59.329Z,40.30
2019-02-26T10:26:30.494Z,40.23
2019-02-26T10:29:03.355Z,40.15
2019-02-26T10:31:27.590Z,40.02
2019-02-26T10:33:55.773Z,39.98
2019-02-26T10:36:23.877Z,40.03
2019-02-26T10:38:53.180Z,39.89
2019-02-26T10:41:21.703Z,40.06
2019-02-26T10:43:49.833Z,40.02
2019-02-26T10:46:18.078Z,40.01
2019-02-26T10:48:47.960Z,39.99
2019-02-26T10:51:17.089Z,40.07
2019-02-26T10:53:45.222Z,40.07
2019-02-26T10:56:13.458Z,40.22
2019-02-26T10:58:41.547Z,40.30
2019-02-26T11:01:09.613Z,40.32
2019-02-26T11:03:40.836Z,40.33
2019-02-26T11:06:09.873Z,40.40
2019-02-26T11:08:37.246Z,40.44
2019-02-26T11:11:07.322Z,40.53
2019-02-26T11:13:37.069Z,40.50
2019-02-26T11:16:05.002Z,40.42
2019-02-26T11:18:34.708Z,40.48
2019-02-26T11:21:03.269Z,40.44
2019-02-26T11:23:33.890Z,40.22
2019-02-26T11:26:01.260Z,40.30
2019-02-26T11:28:32.735Z,40.45
2019-02-26T11:30:59.278Z,40.46
2019-02-26T11:33:27.322Z,40.64
2019-02-26T11:35:55.474Z,40.60
2019-02-26T11:38:23.807Z,40.61
2019-02-26T11:40:52.016Z,40.69
2019-02-26T11:43:23.028Z,40.58
2019-02-26T11:45:49.798Z,40.75
2019-02-26T11:48:18.075Z,40.82
2019-02-26T11:50:46.133Z,40.90
2019-02-26T11:53:14.245Z,40.96
2019-02-26T11:55:42.665Z,41.10
2019-02-26T11:58:13.063Z,41.27
2019-02-26T12:00:50.650Z,41.34
2019-02-26T12:03:22.866Z,41.35
2019-02-26T12:05:49.569Z,41.30
2019-02-26T12:08:21.837Z,41.32
2019-02-26T12:10:47.229Z,41.46
2019-02-26T12:13:17.095Z,41.52
2019-02-26T12:15:45.239Z,41.81
2019-02-26T12:18:15.454Z,41.73
2019-02-26T12:20:45.732Z,41.68
2019-02-26T12:23:15.605Z,41.70
2019-02-26T12:25:42.482Z,41.75
2019-02-26T12:28:11.609Z,41.82
2019-02-26T12:30:43.751Z,41.98
2019-02-26T12:33:12.337Z,41.98
2019-02-26T12:35:40.595Z,42.03
2019-02-26T12:38:18.208Z,41.92
2019-02-26T12:40:41.119Z,41.92
2019-02-26T12:43:11.674Z,42.00
2019-02-26T12:45:40.715Z,41.87
2019-02-26T12:48:10.269Z,41.92
2019-02-26T12:50:40.331Z,41.92
2019-02-26T12:53:12.607Z,41.96
2019-02-26T12:55:42.329Z,41.94
2019-02-26T12:58:11.241Z,42.24
2019-02-26T13:00:42.040Z,42.33
2019-02-26T13:03:12.683Z,42.18
2019-02-26T13:05:42.383Z,42.22
2019-02-26T13:08:12.672Z,42.10
2019-02-26T13:10:42.621Z,42.10
2019-02-26T13:13:10.161Z,42.40
2019-02-26T13:15:38.583Z,42.34
2019-02-26T13:18:06.838Z,42.40
2019-02-26T13:20:34.795Z,42.33
2019-02-26T13:23:16.278Z,42.37
2019-02-26T13:25:32.778Z,42.38
2019-02-26T13:28:00.837Z,42.41
2019-02-26T13:30:28.824Z,42.40
2019-02-26T13:33:00.034Z,42.24
2019-02-26T13:35:26.855Z,42.15
2019-02-26T13:37:54.997Z,41.98
2019-02-26T13:40:22.955Z,42.09
2019-02-26T13:45:21.246Z,42.11
2019-02-26T13:47:49.386Z,43.37
2019-02-26T13:50:19.264Z,42.36
2019-02-26T13:52:47.413Z,42.25
2019-02-26T13:55:15.532Z,42.13
2019-02-26T13:57:43.755Z,42.24
2019-02-26T14:00:12.301Z,42.08
2019-02-26T14:02:40.445Z,42.06
2019-02-26T14:05:08.978Z,42.09
2019-02-26T14:07:37.058Z,42.00
2019-02-26T14:10:05.541Z,41.83
2019-02-26T14:12:33.609Z,41.68
2019-02-26T14:15:03.711Z,41.74
2019-02-26T14:17:31.501Z,41.92
2019-02-26T14:19:59.776Z,41.89
2019-02-26T14:22:28.028Z,42.08
2019-02-26T14:24:56.450Z,42.21
2019-02-26T14:27:24.483Z,42.22
2019-02-26T14:29:52.504Z,42.14
2019-02-26T14:32:20.525Z,42.05
2019-02-26T14:34:48.573Z,42.00
2019-02-26T14:37:16.602Z,41.92
2019-02-26T14:39:44.936Z,41.91
2019-02-26T14:42:12.966Z,41.88
2019-02-26T14:44:41.217Z,41.90
2019-02-26T14:47:09.255Z,41.97
2019-02-26T14:49:37.246Z,41.94
2019-02-26T14:52:05.218Z,41.95
2019-02-26T14:54:33.270Z,41.93
2019-02-26T14:57:01.314Z,41.90
2019-02-26T14:59:29.293Z,41.85
2019-02-26T15:01:57.330Z,41.81
2019-02-26T15:04:25.425Z,41.74
2019-02-26T15:06:53.480Z,41.68
2019-02-26T15:09:21.650Z,41.58
2019-02-26T15:11:49.910Z,41.55
2019-02-26T15:14:18.155Z,41.47
2019-02-26T15:16:46.246Z,41.44
2019-02-26T15:19:14.428Z,41.40
2019-02-26T15:21:42.475Z,41.28
2019-02-26T15:24:10.661Z,41.15
2019-02-26T15:26:38.818Z,41.08
2019-02-26T15:29:07.251Z,40.12
2019-02-26T15:31:35.409Z,38.69
2019-02-26T15:34:03.536Z,38.78
2019-02-26T15:36:32.415Z,39.03
2019-02-26T15:39:00.514Z,39.18
2019-02-26T15:41:28.545Z,39.29
2019-02-26T15:43:57.056Z,39.38
2019-02-26T15:46:25.572Z,39.43
2019-02-26T15:48:53.951Z,39.44
2019-02-26T15:51:21.994Z,39.42
2019-02-26T15:53:50.147Z,39.42
2019-02-26T15:56:18.901Z,39.42
2019-02-26T15:58:46.987Z,39.43
2019-02-26T16:01:15.192Z,39.37
2019-02-26T16:03:44.001Z,39.30
2019-02-26T16:06:11.998Z,39.33
2019-02-26T16:08:41.229Z,39.35
2019-02-26T16:11:09.804Z,39.46
2019-02-26T16:13:37.999Z,39.66
2019-02-26T16:16:06.079Z,39.85
2019-02-26T16:18:34.045Z,40.08
2019-02-26T16:21:02.158Z,40.27
2019-02-26T16:23:30.649Z,40.36
2019-02-26T16:25:59.014Z,40.47
2019-02-26T16:28:28.152Z,40.60
2019-02-26T16:30:57.202Z,40.67
2019-02-26T16:33:25.409Z,40.80
2019-02-26T16:35:57.613Z,40.86
2019-02-26T16:38:23.322Z,40.92
2019-02-26T16:40:51.817Z,41.02
2019-02-26T16:43:19.850Z,41.14
2019-02-26T16:45:47.901Z,41.25
2019-02-26T16:48:16.171Z,41.35
2019-02-26T16:50:45.571Z,41.30
2019-02-26T16:53:14.404Z,41.37
2019-02-26T16:55:42.542Z,41.47
2019-02-26T16:58:10.774Z,41.60
2019-02-26T17:00:38.867Z,41.69
2019-02-26T17:03:06.854Z,41.76
2019-02-26T17:05:34.986Z,41.78
2019-02-26T17:08:03.018Z,41.79
2019-02-26T17:10:31.346Z,41.85
2019-02-26T17:13:01.773Z,41.80
2019-02-26T17:15:29.059Z,41.90
2019-02-26T17:17:57.229Z,41.93
2019-02-26T17:20:26.442Z,41.96
2019-02-26T17:22:54.471Z,41.97
2019-02-26T17:25:27.505Z,41.92
2019-02-26T17:27:52.461Z,41.97
2019-02-26T17:30:20.927Z,42.09
2019-02-26T17:32:50.526Z,42.14
2019-02-26T17:35:18.766Z,42.18
2019-02-26T17:37:47.034Z,42.17
2019-02-26T17:40:18.725Z,42.20
2019-02-26T17:42:48.873Z,42.16
2019-02-26T17:45:19.221Z,42.22
2019-02-26T17:47:50.110Z,42.24
2019-02-26T17:50:28.784Z,42.25
2019-02-26T17:52:57.185Z,42.33
2019-02-26T17:55:25.618Z,42.35
2019-02-26T17:57:53.846Z,42.34
2019-02-26T18:00:22.818Z,42.27
2019-02-26T18:02:51.078Z,42.22
2019-02-26T18:05:19.149Z,42.21
2019-02-26T18:07:47.221Z,42.23
2019-02-26T18:10:16.188Z,42.26
2019-02-26T18:12:44.244Z,42.30
2019-02-26T18:15:16.614Z,42.33
2019-02-26T18:17:42.254Z,42.40
2019-02-26T18:20:11.852Z,42.37
2019-02-26T18:22:40.050Z,42.35
2019-02-26T18:25:09.182Z,42.41
2019-02-26T18:27:37.617Z,42.42
2019-02-26T18:30:05.870Z,42.46
2019-02-26T18:32:34.275Z,42.46
2019-02-26T18:35:02.491Z,42.48
2019-02-26T18:37:30.821Z,42.49
2019-02-26T18:39:58.935Z,42.55
2019-02-26T18:42:27.368Z,42.44
2019-02-26T18:44:55.349Z,42.52
2019-02-26T18:47:23.458Z,42.51
2019-02-26T18:49:52.851Z,42.46
2019-02-26T18:52:21.400Z,42.48
2019-02-26T18:54:53.931Z,42.44
2019-02-26T18:57:19.201Z,42.46
2019-02-26T18:59:47.402Z,42.46
2019-02-26T19:02:16.943Z,42.51
2019-02-26T19:04:48.263Z,42.47
2019-02-26T19:07:14.930Z,42.51
2019-02-26T19:09:44.993Z,42.50
2019-02-26T19:12:12.870Z,42.47
2019-02-26T19:14:42.349Z,42.44
2019-02-26T19:17:10.605Z,42.41
2019-02-26T19:19:39.756Z,42.36
2019-02-26T19:22:08.565Z,42.37
2019-02-26T19:24:36.609Z,42.40
2019-02-26T19:27:04.742Z,42.33
2019-02-26T19:29:32.926Z,42.31
2019-02-26T19:32:01.023Z,42.27
2019-02-26T19:34:29.076Z,42.25
2019-02-26T19:36:57.205Z,42.26
2019-02-26T19:39:26.049Z,42.30
2019-02-26T19:41:54.084Z,42.21
2019-02-26T19:44:22.405Z,42.23
2019-02-26T19:46:51.530Z,42.23
2019-02-26T19:49:19.641Z,42.19
2019-02-26T19:51:47.794Z,42.12
2019-02-26T19:54:15.833Z,42.19
2019-02-26T19:56:43.994Z,42.26
2019-02-26T19:59:13.789Z,42.17
2019-02-26T20:01:41.910Z,42.19
2019-02-26T20:04:10.291Z,42.12
2019-02-26T20:06:38.282Z,42.13
2019-02-26T20:09:07.079Z,42.03
2019-02-26T20:11:37.391Z,42.09
2019-02-26T20:14:05.746Z,42.08
2019-02-26T20:16:35.225Z,42.12
2019-02-26T20:19:04.427Z,42.10
2019-02-26T20:21:32.634Z,42.00
2019-02-26T20:24:00.883Z,42.00
2019-02-26T20:26:28.982Z,41.97
2019-02-26T20:28:57.045Z,42.04
2019-02-26T20:31:25.158Z,42.05
2019-02-26T20:33:53.925Z,42.10
2019-02-26T20:36:22.079Z,42.09
2019-02-26T20:38:50.336Z,42.09
2019-02-26T20:41:19.820Z,42.12
2019-02-26T20:43:48.840Z,42.01
2019-02-26T20:46:17.037Z,42.01
2019-02-26T20:48:46.370Z,42.05
2019-02-26T20:51:14.401Z,42.10
2019-02-26T20:53:48.177Z,42.02
2019-02-26T20:56:16.523Z,41.98
2019-02-26T20:58:45.425Z,41.93
2019-02-26T21:01:13.835Z,41.82
2019-02-26T21:03:41.842Z,41.90
2019-02-26T21:06:09.886Z,41.85
2019-02-26T21:08:38.001Z,41.76
2019-02-26T21:11:06.137Z,41.83
2019-02-26T21:13:34.895Z,41.80
2019-02-26T21:16:03.810Z,41.81
2019-02-26T21:18:32.148Z,41.79
2019-02-26T21:21:00.121Z,41.74
2019-02-26T21:23:29.925Z,41.80
2019-02-26T21:25:58.010Z,41.75
2019-02-26T21:28:26.215Z,41.67
2019-02-26T21:30:54.345Z,41.66
2019-02-26T21:33:22.574Z,41.67
2019-02-26T21:35:51.913Z,41.66
2019-02-26T21:38:20.631Z,41.69
2019-02-26T21:40:49.827Z,41.67
2019-02-26T21:43:18.365Z,41.58
2019-02-26T21:45:49.100Z,41.62
2019-02-26T21:48:16.249Z,41.42
2019-02-26T21:50:44.350Z,41.49
2019-02-26T21:53:12.721Z,41.49
2019-02-26T21:55:44.391Z,41.41
2019-02-26T21:58:12.322Z,41.28
2019-02-26T22:00:40.322Z,41.42
2019-02-26T22:03:08.330Z,41.32
2019-02-26T22:05:37.953Z,41.37
2019-02-26T22:08:06.493Z,41.27
2019-02-26T22:10:34.737Z,41.30
2019-02-26T22:13:02.802Z,41.18
2019-02-26T22:15:30.876Z,41.27
2019-02-26T22:17:59.107Z,41.11
2019-02-26T22:20:35.838Z,41.00
2019-02-26T22:22:57.838Z,41.15
2019-02-26T22:25:27.166Z,41.09
2019-02-26T22:27:55.426Z,41.07
2019-02-26T22:30:23.634Z,41.10
2019-02-26T22:32:51.965Z,41.06
2019-02-26T22:35:20.020Z,41.05
2019-02-26T22:37:48.068Z,40.97
2019-02-26T22:40:16.350Z,40.92
2019-02-26T22:42:44.314Z,41.08
2019-02-26T22:45:12.793Z,40.77
2019-02-26T22:47:42.136Z,40.93
2019-02-26T22:50:11.264Z,40.94
2019-02-26T22:52:39.581Z,40.85
2019-02-26T22:55:08.113Z,40.96
2019-02-26T22:57:36.470Z,40.77
2019-02-26T23:00:08.185Z,40.97
2019-02-26T23:02:40.627Z,40.83
2019-02-26T23:05:06.142Z,40.91
2019-02-26T23:07:39.148Z,40.87
2019-02-26T23:10:04.225Z,40.88
2019-02-26T23:12:32.511Z,40.88
2019-02-26T23:15:00.689Z,41.03
2019-02-26T23:17:29.100Z,40.98
2019-02-26T23:19:57.121Z,40.84
2019-02-26T23:22:25.312Z,40.74
2019-02-26T23:24:53.583Z,40.96
2019-02-26T23:27:21.786Z,41.07
2019-02-26T23:29:49.902Z,41.26
2019-02-26T23:32:18.083Z,40.84
2019-02-26T23:35:01.610Z,40.87
2019-02-26T23:37:34.298Z,40.85
2019-02-26T23:39:59.440Z,40.76
2019-02-26T23:42:27.518Z,40.47
2019-02-26T23:44:55.742Z,40.85
2019-02-26T23:47:23.844Z,41.26
2019-02-26T23:49:51.930Z,41.35
2019-02-26T23:52:20.035Z,41.40
2019-02-26T23:54:48.164Z,41.52
2019-02-26T23:57:16.292Z,41.49
2019-02-26T23:59:44.341Z,41.46
